TFM - Tactical Decision Aid
ID: Runway Winds: CIG/VIS Threshold:

KDTW - Detroit Metro/Wayne, MI, US

Updated at: 1811 UTC 19 Aug 2019
Latest TAF at: 1733 UTC 19 Aug 2019

TAF Board

Time1753Z 19/19Z 19/20Z 19/21Z 19/22Z 19/23Z 20/00Z 20/01Z 20/02Z 20/03Z 20/04Z 20/05Z 20/06Z 20/07Z>>
Type OBS PRVL PRVL PRVL PRVL PRVL PRVL PRVL PRVL PRVL PRVL PRVL PRVL PRVL
VIS 10 >6 >6 >6 >6 >6 >6 >6 >6 >6 >6 >6 >6 >6
CIG 45 40 40 40 40 40 40 40 -- -- -- -- -- --
Cover BKN BKN BKN BKN BKN BKN BKN BKN SCT SCT SCT SCT SCT SCT
FltCat VFR VFR VFR VFR VFR VFR VFR VFR VFR VFR VFR VFR VFR VFR
WX -- -- -- -- -- -- -- -- -- -- -- -- -- --
WDir 220 190 190 190 190 190 190 190 VRB VRB VRB VRB VRB VRB
WSpd 6 4 4 4 4 4 4 4 3 3 3 3 3 3
WGst -- -- -- -- -- -- -- -- -- -- -- -- -- --

TDA Impact Legend

  None Marginal Slight Moderate High
Visibility (sm) >5 3≤X≤5 1≤X<3 0.5≤X<1 <0.5
Ceiling (100 ft) >30 10≤X≤30 4≤X<10 2≤X<4 <2
Wind Speed (kt) <15 15≤X<25 25≤X<30 ≥30
Wind Gust (kt) <15 15≤X<25 25≤X<35 ≥35
Weather No Wx Reported VCTS -TS,-FZRA TS,FZRA +TS,+FZRA
TAF
KDTW 191733Z 1918/2024 19004KT P6SM BKN040
  FM200200 VRB03KT P6SM SCT040
  TEMPO 2009/2012 5SM BR
  FM201600 19005KT P6SM SCT040


METAR
KDTW 191753Z 22006KT 10SM SCT035 BKN045 27/18 A3006 RMK AO2 SLP174 T02670183 10278 20206 50003
KDTW 191653Z 15004KT 10SM SCT029 BKN035 BKN050 26/18 A3006 RMK AO2 SLP176 T02610178
KDTW 191553Z 00000KT 10SM SCT022 BKN035 BKN230 26/18 A3005 RMK AO2 SLP174 T02610178
KDTW 191542Z 00000KT 10SM SCT018 BKN035 BKN230 26/18 A3005 RMK AO2 T02610178
KDTW 191523Z VRB03KT 9SM BKN018 BKN035 BKN220 26/18 A3005 RMK AO2 BKN018 V SCT T02560183
KDTW 191453Z 00000KT 8SM BKN012 BKN220 25/19 A3005 RMK AO2 SLP171 BKN012 V SCT T02500194 51012

Radar Display
Forecast Discussion